Time;durP1;ratioP1;P1;durP2;ratioP2;P2;SDS_P1;SDS_P2;PMS_P1;PMS_P2;Temp;Humidity;BMP_temperature;BMP_pressure;BME280_temperature;BME280_humidity;BME280_pressure;Samples;Min_cycle;Max_cycle;Signal;HPM_P1;HPM_P2
2023/09/27 00:01:53;;;;;;;15.70;12.52;;;16.50;70.90;;;;;;4989788;28;20058;-74
2023/09/27 00:04:20;;;;;;;17.42;13.23;;;16.40;71.00;;;;;;4989650;28;20527;-73
2023/09/27 00:06:47;;;;;;;15.85;11.90;;;16.40;71.20;;;;;;5005963;28;20060;-73
2023/09/27 00:09:15;;;;;;;16.43;12.23;;;16.40;71.10;;;;;;4989853;28;20125;-74
2023/09/27 00:11:44;;;;;;;14.32;11.40;;;16.40;71.00;;;;;;4989423;28;20895;-74
2023/09/27 00:14:11;;;;;;;16.77;12.90;;;16.40;71.00;;;;;;4989679;28;20042;-73
2023/09/27 00:16:38;;;;;;;18.95;13.45;;;16.40;71.10;;;;;;4986548;28;20053;-73
2023/09/27 00:19:05;;;;;;;15.70;12.60;;;16.40;71.20;;;;;;4989917;28;20054;-73
2023/09/27 00:21:32;;;;;;;18.83;13.37;;;16.40;71.20;;;;;;5007557;28;20081;-73
2023/09/27 00:23:59;;;;;;;17.23;11.70;;;16.30;71.20;;;;;;4997119;28;20293;-73
2023/09/27 00:26:26;;;;;;;14.45;11.00;;;16.30;71.20;;;;;;5012724;28;20056;-73
2023/09/27 00:28:55;;;;;;;16.42;11.85;;;16.30;71.00;;;;;;4993740;28;20085;-73
2023/09/27 00:31:21;;;;;;;13.35;9.77;;;16.20;71.10;;;;;;4992052;28;20444;-73
2023/09/27 00:33:49;;;;;;;13.17;10.10;;;16.20;71.10;;;;;;4991689;28;20051;-73
2023/09/27 00:36:17;;;;;;;12.43;9.60;;;16.20;71.00;;;;;;4993525;28;20266;-74
2023/09/27 00:38:44;;;;;;;10.63;8.60;;;16.20;71.00;;;;;;5002022;28;20678;-73
2023/09/27 00:41:11;;;;;;;12.18;8.77;;;16.20;71.20;;;;;;4992958;28;20053;-73
2023/09/27 00:43:38;;;;;;;11.88;8.65;;;16.10;71.20;;;;;;4976279;28;20475;-73
2023/09/27 00:46:08;;;;;;;10.00;7.83;;;16.10;71.10;;;;;;5010301;28;20069;-74
2023/09/27 00:48:37;;;;;;;11.50;8.68;;;16.10;71.00;;;;;;4992886;28;20288;-73
2023/09/27 00:51:05;;;;;;;11.50;9.23;;;16.10;71.00;;;;;;5002664;28;20054;-73
2023/09/27 00:53:35;;;;;;;13.52;9.43;;;16.00;71.20;;;;;;4973389;28;20046;-73
2023/09/27 00:56:02;;;;;;;11.52;9.70;;;16.00;71.40;;;;;;4979643;28;20057;-73
2023/09/27 00:58:31;;;;;;;13.07;10.00;;;16.00;71.40;;;;;;4992691;28;20424;-73
2023/09/27 01:00:59;;;;;;;10.98;9.02;;;16.00;71.40;;;;;;4999789;28;20298;-73
2023/09/27 01:03:27;;;;;;;12.35;9.85;;;16.00;71.40;;;;;;5010057;28;20117;-73
2023/09/27 01:05:55;;;;;;;13.50;11.43;;;16.00;71.60;;;;;;5010258;28;20058;-73
2023/09/27 01:08:22;;;;;;;18.15;13.57;;;15.90;71.70;;;;;;5009208;28;20058;-73
2023/09/27 01:10:49;;;;;;;17.67;14.43;;;15.80;71.90;;;;;;5008873;28;20050;-73
2023/09/27 01:13:16;;;;;;;18.08;14.07;;;15.80;72.10;;;;;;4991686;28;20274;-73
2023/09/27 01:15:43;;;;;;;19.20;15.00;;;15.80;72.30;;;;;;5009723;28;20500;-73
2023/09/27 01:18:09;;;;;;;18.95;15.27;;;15.70;72.50;;;;;;4992962;28;20552;-73
2023/09/27 01:20:38;;;;;;;18.27;14.60;;;15.60;72.70;;;;;;4990667;28;20057;-73
2023/09/27 01:23:07;;;;;;;19.90;15.63;;;15.60;72.90;;;;;;4992177;28;20057;-73
2023/09/27 01:25:35;;;;;;;18.08;14.45;;;15.60;73.00;;;;;;5008141;28;20296;-73
2023/09/27 01:28:03;;;;;;;20.00;14.88;;;15.50;73.10;;;;;;5004372;28;20058;-73
2023/09/27 01:30:32;;;;;;;19.67;15.00;;;15.50;73.20;;;;;;4956249;28;20061;-73
2023/09/27 01:33:00;;;;;;;19.35;14.70;;;15.50;73.30;;;;;;4987155;28;20073;-73
2023/09/27 01:35:27;;;;;;;17.97;14.27;;;15.50;73.40;;;;;;5008710;28;20058;-73
2023/09/27 01:37:54;;;;;;;18.45;14.30;;;15.50;73.40;;;;;;5009320;28;20838;-73
2023/09/27 01:40:30;;;;;;;19.17;14.85;;;15.40;73.60;;;;;;4992003;28;20106;-74
2023/09/27 01:42:58;;;;;;;17.65;13.88;;;15.40;73.60;;;;;;4991536;28;20050;-74
2023/09/27 01:45:25;;;;;;;18.05;14.48;;;15.40;73.60;;;;;;4987279;28;20589;-73
2023/09/27 01:47:52;;;;;;;17.47;14.13;;;15.40;73.50;;;;;;5004262;28;20141;-73
2023/09/27 01:50:19;;;;;;;16.95;13.05;;;15.40;73.60;;;;;;5008067;28;20266;-74
2023/09/27 01:52:46;;;;;;;17.63;13.25;;;15.40;73.60;;;;;;4975154;28;20046;-73
2023/09/27 01:55:14;;;;;;;14.70;12.10;;;15.40;73.50;;;;;;5009904;28;20117;-73
2023/09/27 01:57:45;;;;;;;13.23;11.05;;;15.40;73.30;;;;;;4991887;28;20153;-73
2023/09/27 02:00:14;;;;;;;15.00;11.93;;;15.40;73.10;;;;;;4991885;28;20046;-73
2023/09/27 02:02:41;;;;;;;14.63;11.02;;;15.40;73.10;;;;;;4999272;28;20259;-73
2023/09/27 02:05:09;;;;;;;14.73;11.75;;;15.40;73.10;;;;;;4990023;28;20133;-73
2023/09/27 02:07:38;;;;;;;13.43;10.77;;;15.30;73.20;;;;;;4978573;28;20061;-73
2023/09/27 02:10:05;;;;;;;15.73;12.00;;;15.30;73.20;;;;;;5008192;28;20196;-73
2023/09/27 02:12:32;;;;;;;15.53;12.33;;;15.30;73.20;;;;;;4990869;28;20061;-73
2023/09/27 02:15:01;;;;;;;15.93;11.60;;;15.30;73.20;;;;;;5009355;28;20392;-73
2023/09/27 02:17:28;;;;;;;16.80;12.93;;;15.20;73.30;;;;;;4988002;28;20062;-74
2023/09/27 02:19:55;;;;;;;16.08;11.77;;;15.20;73.50;;;;;;4972292;28;20050;-73
2023/09/27 02:22:23;;;;;;;13.60;10.95;;;15.20;73.60;;;;;;5008716;28;20050;-73
2023/09/27 02:24:49;;;;;;;13.03;10.73;;;15.20;73.70;;;;;;5002780;28;20054;-73
2023/09/27 02:27:16;;;;;;;16.30;11.75;;;15.10;73.70;;;;;;5024099;28;20278;-73
2023/09/27 02:29:44;;;;;;;15.98;11.75;;;15.10;73.80;;;;;;4971770;28;20105;-73
2023/09/27 02:32:13;;;;;;;15.50;12.60;;;15.10;73.80;;;;;;4991030;28;20057;-73
2023/09/27 02:34:42;;;;;;;17.83;13.20;;;15.10;73.90;;;;;;4991350;28;20097;-73
2023/09/27 02:37:09;;;;;;;15.70;12.87;;;15.00;73.80;;;;;;5015737;28;20512;-74
2023/09/27 02:39:37;;;;;;;17.33;13.15;;;15.00;73.90;;;;;;5008104;28;20811;-73
2023/09/27 02:42:04;;;;;;;17.95;14.77;;;15.00;73.90;;;;;;5008697;28;20058;-73
2023/09/27 02:44:31;;;;;;;20.25;13.63;;;15.00;73.90;;;;;;4995199;28;20054;-73
2023/09/27 02:46:58;;;;;;;16.83;13.23;;;14.90;74.10;;;;;;4994813;28;20509;-73
2023/09/27 02:49:26;;;;;;;14.53;11.47;;;14.90;74.10;;;;;;4991065;28;20158;-72
2023/09/27 02:51:53;;;;;;;15.13;11.10;;;14.90;74.20;;;;;;4990663;28;20285;-73
2023/09/27 02:54:20;;;;;;;14.90;11.25;;;14.90;74.00;;;;;;5007145;28;20061;-73
2023/09/27 02:56:47;;;;;;;16.10;11.40;;;14.90;73.90;;;;;;4990238;28;20043;-72
2023/09/27 02:59:14;;;;;;;17.13;12.32;;;14.90;73.90;;;;;;5007372;28;20093;-73
2023/09/27 03:01:43;;;;;;;16.27;11.20;;;14.90;73.80;;;;;;4990671;28;20488;-73
2023/09/27 03:04:11;;;;;;;14.40;10.68;;;14.90;73.90;;;;;;5007059;28;20316;-73
2023/09/27 03:06:39;;;;;;;14.50;10.70;;;14.90;73.90;;;;;;4995979;28;20070;-73
2023/09/27 03:09:08;;;;;;;15.70;11.40;;;14.80;73.80;;;;;;4981611;28;20759;-73
2023/09/27 03:11:35;;;;;;;15.98;11.30;;;14.90;73.70;;;;;;5007149;28;20058;-73
2023/09/27 03:14:02;;;;;;;14.40;11.40;;;14.80;73.80;;;;;;4973576;28;20046;-73
2023/09/27 03:16:30;;;;;;;16.15;11.68;;;14.80;73.80;;;;;;4990339;28;20254;-73
2023/09/27 03:18:58;;;;;;;16.95;11.65;;;14.80;73.80;;;;;;5007436;28;20050;-73
2023/09/27 03:21:26;;;;;;;17.27;12.60;;;14.80;73.80;;;;;;4990557;28;20502;-73
2023/09/27 03:23:54;;;;;;;15.93;12.20;;;14.80;73.70;;;;;;4974528;28;20148;-73
2023/09/27 03:26:23;;;;;;;15.07;11.07;;;14.70;73.80;;;;;;5006946;28;20054;-73
2023/09/27 03:28:51;;;;;;;16.42;10.88;;;14.70;73.80;;;;;;4990688;28;20258;-73
2023/09/27 03:31:19;;;;;;;14.05;10.52;;;14.70;73.80;;;;;;5008135;28;20052;-73
2023/09/27 03:33:47;;;;;;;17.05;12.40;;;14.70;73.70;;;;;;5005997;28;20178;-74
2023/09/27 03:36:14;;;;;;;16.27;12.18;;;14.70;73.80;;;;;;5008129;28;20058;-73
2023/09/27 03:38:42;;;;;;;17.43;12.47;;;14.60;73.80;;;;;;5022855;28;20057;-73
2023/09/27 03:41:11;;;;;;;16.00;12.43;;;14.60;73.80;;;;;;4986926;28;20247;-73
2023/09/27 03:43:38;;;;;;;18.10;13.32;;;14.60;73.80;;;;;;4970502;28;20061;-73
2023/09/27 03:46:05;;;;;;;15.52;12.38;;;14.60;73.80;;;;;;4987075;28;20548;-73
2023/09/27 03:48:34;;;;;;;18.45;13.05;;;14.60;73.80;;;;;;4970846;28;20548;-73
2023/09/27 03:51:02;;;;;;;16.73;13.40;;;14.60;73.90;;;;;;4979975;28;20051;-73
2023/09/27 03:53:32;;;;;;;16.63;12.27;;;14.60;73.90;;;;;;4954144;28;20379;-73
2023/09/27 03:55:58;;;;;;;16.42;11.43;;;14.60;73.80;;;;;;4980343;28;20078;-73
2023/09/27 03:58:27;;;;;;;15.55;11.20;;;14.60;73.90;;;;;;4975361;28;20501;-73
2023/09/27 04:00:54;;;;;;;16.33;12.05;;;14.50;73.90;;;;;;5006205;28;20051;-73
2023/09/27 04:03:21;;;;;;;17.97;12.90;;;14.50;73.90;;;;;;5006277;28;20054;-73
2023/09/27 04:05:48;;;;;;;13.50;10.63;;;14.50;73.80;;;;;;4986788;28;20809;-73
2023/09/27 04:08:17;;;;;;;10.05;8.30;;;14.50;73.80;;;;;;4961166;28;20489;-73
2023/09/27 04:10:44;;;;;;;11.45;9.10;;;14.50;73.90;;;;;;4974049;28;20077;-73
2023/09/27 04:13:11;;;;;;;13.52;10.75;;;14.50;74.00;;;;;;4989820;28;20428;-73
2023/09/27 04:15:39;;;;;;;15.93;12.80;;;14.40;74.00;;;;;;4987721;28;20078;-73
2023/09/27 04:18:06;;;;;;;14.93;12.20;;;14.40;74.10;;;;;;5005503;28;20294;-73
2023/09/27 04:20:34;;;;;;;16.10;11.88;;;14.40;74.30;;;;;;4989794;28;20078;-73
2023/09/27 04:23:02;;;;;;;13.77;10.90;;;14.30;74.30;;;;;;4987472;28;20166;-73
2023/09/27 04:25:29;;;;;;;15.98;12.10;;;14.30;74.40;;;;;;5005566;28;20547;-73
2023/09/27 04:27:56;;;;;;;17.87;12.50;;;14.30;74.40;;;;;;4988821;28;20062;-73
2023/09/27 04:30:22;;;;;;;15.60;11.85;;;14.30;74.30;;;;;;5008008;28;20310;-73
2023/09/27 04:32:52;;;;;;;15.95;11.90;;;14.30;74.40;;;;;;4989686;28;20513;-73
2023/09/27 04:35:20;;;;;;;15.73;11.98;;;14.20;74.50;;;;;;4994594;28;20058;-73
2023/09/27 04:37:48;;;;;;;17.38;12.85;;;14.20;74.40;;;;;;5004148;28;20117;-73
2023/09/27 04:40:15;;;;;;;16.73;12.60;;;14.20;74.60;;;;;;5005638;28;20123;-73
2023/09/27 04:42:43;;;;;;;18.08;12.30;;;14.20;74.50;;;;;;5006072;28;20289;-73
2023/09/27 04:45:11;;;;;;;17.00;12.35;;;14.20;74.60;;;;;;5006369;28;20361;-73
2023/09/27 04:47:39;;;;;;;17.98;12.40;;;14.20;74.50;;;;;;4989512;28;20061;-73
2023/09/27 04:50:10;;;;;;;17.27;13.40;;;14.20;74.50;;;;;;5005520;28;20840;-73
2023/09/27 04:52:37;;;;;;;15.90;12.57;;;14.10;74.50;;;;;;5005162;28;20074;-73
2023/09/27 04:55:06;;;;;;;19.25;12.50;;;14.10;74.60;;;;;;4987387;28;20254;-73
2023/09/27 04:57:33;;;;;;;15.95;11.80;;;14.10;74.70;;;;;;4971011;28;20047;-73
2023/09/27 05:00:00;;;;;;;13.85;10.15;;;14.10;74.70;;;;;;5007163;28;20054;-73
2023/09/27 05:02:27;;;;;;;16.17;12.07;;;14.10;74.70;;;;;;5000078;28;20058;-73
2023/09/27 05:04:54;;;;;;;16.40;12.63;;;14.10;74.70;;;;;;4985763;28;20047;-73
2023/09/27 05:07:23;;;;;;;16.40;11.00;;;14.10;74.70;;;;;;4997346;28;20278;-73
2023/09/27 05:09:55;;;;;;;15.50;11.65;;;14.00;74.80;;;;;;4993425;28;20109;-72
2023/09/27 05:12:22;;;;;;;15.82;11.70;;;14.00;74.70;;;;;;4995706;28;20055;-73
2023/09/27 05:14:49;;;;;;;17.77;11.90;;;14.00;74.80;;;;;;4995817;28;20113;-73
2023/09/27 05:17:16;;;;;;;18.43;13.07;;;14.00;75.10;;;;;;5000397;28;20054;-73
2023/09/27 05:19:43;;;;;;;18.48;12.77;;;14.00;75.10;;;;;;5003183;28;20262;-72
2023/09/27 05:22:11;;;;;;;19.35;13.05;;;13.90;75.20;;;;;;4976934;28;20050;-72
2023/09/27 05:24:40;;;;;;;20.80;13.80;;;13.90;75.40;;;;;;4977238;28;20528;-72
2023/09/27 05:27:07;;;;;;;19.23;13.73;;;13.90;75.70;;;;;;5001188;28;20695;-73
2023/09/27 05:29:35;;;;;;;18.43;13.57;;;13.90;75.90;;;;;;4990283;28;20131;-72
2023/09/27 05:32:02;;;;;;;18.60;13.73;;;13.90;76.10;;;;;;5000560;28;20277;-72
2023/09/27 05:34:31;;;;;;;18.77;14.20;;;13.90;76.20;;;;;;4970170;28;20042;-73
2023/09/27 05:36:57;;;;;;;21.52;14.90;;;13.90;76.40;;;;;;4987165;28;20089;-73
2023/09/27 05:39:24;;;;;;;19.15;14.85;;;13.90;76.50;;;;;;5004894;28;20171;-73
2023/09/27 05:41:53;;;;;;;19.63;14.70;;;13.90;76.50;;;;;;4981517;28;20058;-72
2023/09/27 05:44:20;;;;;;;19.85;14.05;;;13.90;76.70;;;;;;4998271;28;20381;-72
2023/09/27 05:46:47;;;;;;;20.35;14.75;;;13.90;76.70;;;;;;4989427;28;20569;-73
2023/09/27 05:49:15;;;;;;;17.50;14.10;;;13.90;76.80;;;;;;4987589;28;20051;-73
2023/09/27 05:51:43;;;;;;;14.63;11.65;;;13.90;76.90;;;;;;5005580;28;20082;-73
2023/09/27 05:54:10;;;;;;;17.90;12.23;;;13.90;77.00;;;;;;5008955;28;20062;-73
2023/09/27 05:56:38;;;;;;;16.73;12.55;;;13.90;77.10;;;;;;5007876;28;21038;-73
2023/09/27 05:59:08;;;;;;;17.35;13.07;;;13.90;77.10;;;;;;5004383;28;20062;-73
2023/09/27 06:01:36;;;;;;;18.45;13.95;;;13.90;77.10;;;;;;4984934;28;20058;-73
2023/09/27 06:04:03;;;;;;;20.33;14.68;;;13.90;77.20;;;;;;4994672;28;20058;-73
2023/09/27 06:06:30;;;;;;;19.33;15.40;;;13.90;77.20;;;;;;4985513;28;20058;-73
2023/09/27 06:08:58;;;;;;;20.48;15.07;;;13.90;77.30;;;;;;4989146;28;20282;-72
2023/09/27 06:11:25;;;;;;;20.08;15.23;;;13.90;77.50;;;;;;4972997;28;20085;-73
2023/09/27 06:13:52;;;;;;;18.83;14.82;;;13.90;77.60;;;;;;5003054;28;20507;-73
2023/09/27 06:16:21;;;;;;;18.73;13.95;;;13.90;77.60;;;;;;4988068;28;20413;-73
2023/09/27 06:18:48;;;;;;;18.23;14.27;;;13.90;77.60;;;;;;4989189;28;20042;-73
2023/09/27 06:21:15;;;;;;;19.63;14.65;;;13.90;77.80;;;;;;4987339;28;20353;-73
2023/09/27 06:23:42;;;;;;;19.35;15.07;;;13.90;77.80;;;;;;5005129;28;20121;-73
2023/09/27 06:26:09;;;;;;;20.92;15.68;;;13.90;77.80;;;;;;5003360;28;20054;-73
2023/09/27 06:28:38;;;;;;;22.90;16.33;;;13.90;77.70;;;;;;4989302;28;20058;-73
2023/09/27 06:31:06;;;;;;;24.57;16.23;;;13.90;77.80;;;;;;4994238;28;20519;-73
2023/09/27 06:33:38;;;;;;;22.98;16.15;;;13.90;77.80;;;;;;4985883;28;20247;-73
2023/09/27 06:36:07;;;;;;;21.90;16.00;;;13.90;78.00;;;;;;4999930;28;20050;-73
2023/09/27 06:38:34;;;;;;;24.77;17.27;;;13.90;78.00;;;;;;5006067;28;20053;-73
2023/09/27 06:41:01;;;;;;;22.48;16.17;;;13.90;77.90;;;;;;4975728;28;20050;-73
2023/09/27 06:43:29;;;;;;;21.57;15.73;;;13.90;78.00;;;;;;4998146;28;20105;-73
2023/09/27 06:45:56;;;;;;;22.27;15.73;;;13.90;78.10;;;;;;4990464;28;20721;-73
2023/09/27 06:48:24;;;;;;;21.60;16.00;;;13.90;78.20;;;;;;4991722;28;20468;-73
2023/09/27 06:50:53;;;;;;;21.70;16.38;;;13.90;78.30;;;;;;4980170;28;20078;-73
2023/09/27 06:53:20;;;;;;;22.67;16.35;;;14.00;78.40;;;;;;4986614;28;20170;-73
2023/09/27 06:55:49;;;;;;;24.00;17.33;;;13.90;78.50;;;;;;4998728;28;20521;-73
2023/09/27 06:58:22;;;;;;;24.23;17.02;;;13.90;78.70;;;;;;4984230;28;20251;-73
2023/09/27 07:00:51;;;;;;;24.02;18.60;;;14.00;78.60;;;;;;4995996;28;20409;-73
2023/09/27 07:03:19;;;;;;;26.27;19.48;;;14.00;78.70;;;;;;4995845;28;20050;-73
2023/09/27 07:05:46;;;;;;;28.00;20.05;;;14.00;79.00;;;;;;4979703;28;20101;-73
2023/09/27 07:08:14;;;;;;;27.83;19.50;;;14.00;79.40;;;;;;4984634;28;20047;-72
2023/09/27 07:10:42;;;;;;;28.50;19.65;;;14.10;79.80;;;;;;4981030;28;20302;-73
2023/09/27 07:13:09;;;;;;;25.60;19.13;;;14.10;80.10;;;;;;4986851;28;20054;-73
2023/09/27 07:15:36;;;;;;;27.40;19.08;;;14.10;80.10;;;;;;4981081;28;20075;-73
2023/09/27 07:18:04;;;;;;;29.75;20.02;;;14.10;80.00;;;;;;4997356;28;20058;-73
2023/09/27 07:20:34;;;;;;;28.93;20.47;;;14.10;80.30;;;;;;4990357;28;20549;-73
2023/09/27 07:23:04;;;;;;;28.63;20.65;;;14.20;80.50;;;;;;5006144;28;20617;-73
2023/09/27 07:25:35;;;;;;;27.27;20.50;;;14.20;80.80;;;;;;5008137;28;20058;-74
2023/09/27 07:28:04;;;;;;;30.40;21.77;;;14.30;81.00;;;;;;4976564;28;20591;-73
2023/09/27 07:30:33;;;;;;;29.50;20.75;;;14.30;81.20;;;;;;4998759;28;20084;-73
2023/09/27 07:33:03;;;;;;;30.30;20.93;;;14.30;81.40;;;;;;5000399;28;20477;-73
2023/09/27 07:35:33;;;;;;;28.90;21.45;;;14.40;81.60;;;;;;4994702;28;20258;-73
2023/09/27 07:38:01;;;;;;;29.23;21.33;;;14.50;81.60;;;;;;4980297;28;20532;-73
2023/09/27 07:40:29;;;;;;;31.58;22.08;;;14.50;81.70;;;;;;4987438;28;20094;-73
2023/09/27 07:42:58;;;;;;;30.05;21.27;;;14.50;81.80;;;;;;4999468;28;20547;-73
2023/09/27 07:45:30;;;;;;;27.43;21.23;;;14.60;81.80;;;;;;5000790;28;20623;-73
2023/09/27 07:47:57;;;;;;;29.98;21.30;;;14.60;81.70;;;;;;5004174;28;20259;-73
2023/09/27 07:50:26;;;;;;;30.38;21.05;;;14.60;82.00;;;;;;4986365;28;20130;-73
2023/09/27 07:52:54;;;;;;;31.95;22.10;;;14.70;82.20;;;;;;4979409;28;20050;-72
2023/09/27 07:55:22;;;;;;;30.45;21.63;;;14.70;82.20;;;;;;4970197;28;20528;-72
2023/09/27 07:57:49;;;;;;;29.80;22.30;;;14.80;82.30;;;;;;4986277;28;20061;-73
2023/09/27 08:00:19;;;;;;;28.98;20.77;;;14.80;82.50;;;;;;4988119;28;20863;-74
2023/09/27 08:02:46;;;;;;;30.00;22.10;;;14.80;82.70;;;;;;4991382;28;20062;-73
2023/09/27 08:05:16;;;;;;;32.15;21.90;;;14.90;82.70;;;;;;4977481;28;20051;-73
2023/09/27 08:07:44;;;;;;;30.08;21.58;;;15.00;82.70;;;;;;4975387;28;20047;-73
2023/09/27 08:10:11;;;;;;;30.20;21.27;;;15.00;82.70;;;;;;4995984;28;20152;-73
2023/09/27 08:12:39;;;;;;;30.45;21.55;;;15.00;82.80;;;;;;4986151;28;20368;-73
2023/09/27 08:15:11;;;;;;;29.95;21.67;;;15.00;82.60;;;;;;4983990;28;20050;-73
2023/09/27 08:17:40;;;;;;;32.72;24.10;;;15.10;82.50;;;;;;4995017;28;20058;-73
2023/09/27 08:20:09;;;;;;;31.35;22.65;;;15.20;82.60;;;;;;4995208;28;20066;-74
2023/09/27 08:22:39;;;;;;;32.63;23.60;;;15.20;82.90;;;;;;4998888;28;20137;-73
2023/09/27 08:25:09;;;;;;;31.58;23.35;;;15.20;83.40;;;;;;4988930;28;20838;-73
2023/09/27 08:27:37;;;;;;;35.05;25.52;;;15.30;83.80;;;;;;4986127;28;20737;-74
2023/09/27 08:30:06;;;;;;;36.13;26.05;;;15.40;84.00;;;;;;5003356;28;20042;-74
2023/09/27 08:32:33;;;;;;;34.78;25.20;;;15.50;84.10;;;;;;4998487;28;20050;-74
2023/09/27 08:35:04;;;;;;;32.73;23.90;;;15.50;84.10;;;;;;4988288;28;20602;-73
2023/09/27 08:37:32;;;;;;;31.50;23.27;;;15.60;84.10;;;;;;4978468;28;20354;-73
2023/09/27 08:39:59;;;;;;;33.30;24.13;;;15.60;84.20;;;;;;4983796;28;20101;-73
2023/09/27 08:42:26;;;;;;;31.48;23.13;;;15.80;84.20;;;;;;5000356;28;20061;-73
2023/09/27 08:44:54;;;;;;;34.47;24.27;;;15.80;84.40;;;;;;4996411;28;20132;-73
2023/09/27 08:47:21;;;;;;;32.13;23.33;;;15.90;84.30;;;;;;5002346;28;20055;-74
2023/09/27 08:49:49;;;;;;;34.13;24.85;;;16.00;84.50;;;;;;5004980;28;20296;-74
2023/09/27 08:52:18;;;;;;;35.75;24.42;;;16.00;84.60;;;;;;4987300;28;20547;-74
2023/09/27 08:54:45;;;;;;;32.40;23.52;;;16.10;84.60;;;;;;4990204;28;20051;-73
2023/09/27 08:57:12;;;;;;;34.08;23.90;;;16.20;84.60;;;;;;4986944;28;20077;-74
2023/09/27 08:59:40;;;;;;;32.23;22.30;;;16.20;84.70;;;;;;5007363;28;20120;-74
2023/09/27 09:02:08;;;;;;;34.47;24.20;;;16.30;84.60;;;;;;5007330;28;20281;-74
2023/09/27 09:04:35;;;;;;;36.95;25.20;;;16.40;84.80;;;;;;5008334;28;20125;-74
2023/09/27 09:07:03;;;;;;;34.60;24.70;;;16.50;84.80;;;;;;4999538;28;20046;-74
2023/09/27 09:09:32;;;;;;;30.08;21.98;;;16.50;84.90;;;;;;5007593;28;20496;-74
2023/09/27 09:12:08;;;;;;;31.60;22.60;;;16.60;84.80;;;;;;4991270;28;20096;-74
2023/09/27 09:14:42;;;;;;;33.70;23.13;;;16.70;84.80;;;;;;4992339;28;20773;-74
2023/09/27 09:17:10;;;;;;;29.63;19.88;;;16.80;84.80;;;;;;5006252;28;20272;-74
2023/09/27 09:19:38;;;;;;;27.35;19.15;;;16.90;84.70;;;;;;5006296;28;20461;-74
2023/09/27 09:22:08;;;;;;;29.42;20.60;;;17.00;84.70;;;;;;4988454;28;20117;-74
2023/09/27 09:24:40;;;;;;;27.77;19.33;;;17.00;84.80;;;;;;4987082;28;20138;-74
2023/09/27 09:27:09;;;;;;;29.38;21.75;;;17.20;84.60;;;;;;4988794;28;20734;-74
2023/09/27 09:29:47;;;;;;;29.92;20.13;;;17.20;84.40;;;;;;5007991;28;20524;-74
2023/09/27 09:32:15;;;;;;;25.50;18.02;;;17.20;84.20;;;;;;5003426;28;20550;-74
2023/09/27 09:34:43;;;;;;;27.55;19.98;;;17.40;84.20;;;;;;4989864;28;20185;-74
2023/09/27 09:37:17;;;;;;;24.77;18.37;;;17.50;84.20;;;;;;5007636;28;20057;-74
2023/09/27 09:39:46;;;;;;;26.52;15.63;;;17.50;84.20;;;;;;5006869;28;20353;-74
2023/09/27 09:42:14;;;;;;;24.02;14.60;;;17.60;84.20;;;;;;5005621;28;20059;-74
2023/09/27 09:44:41;;;;;;;24.05;17.38;;;17.80;84.00;;;;;;5007843;28;20501;-74
2023/09/27 09:47:12;;;;;;;25.00;16.25;;;17.80;83.70;;;;;;5009285;28;20125;-74
2023/09/27 09:49:41;;;;;;;22.47;16.70;;;17.90;83.70;;;;;;5006846;28;20161;-74
2023/09/27 09:52:12;;;;;;;20.90;14.43;;;18.00;83.50;;;;;;4990622;28;20242;-74
2023/09/27 09:54:46;;;;;;;20.65;15.00;;;18.00;83.50;;;;;;5003984;28;20089;-74
2023/09/27 09:57:18;;;;;;;23.48;16.00;;;18.10;83.30;;;;;;5000835;28;20054;-74
2023/09/27 09:59:51;;;;;;;23.98;17.48;;;18.20;83.30;;;;;;4986672;28;20047;-75
2023/09/27 10:02:21;;;;;;;23.33;17.27;;;18.30;83.20;;;;;;4987529;28;20134;-75
2023/09/27 10:04:55;;;;;;;24.73;16.77;;;18.40;83.30;;;;;;4985682;28;20346;-75
2023/09/27 10:07:22;;;;;;;21.17;15.77;;;18.50;83.50;;;;;;4984199;28;20537;-75
2023/09/27 10:09:50;;;;;;;23.50;17.55;;;18.60;83.40;;;;;;4998665;28;20054;-75
2023/09/27 10:12:21;;;;;;;22.15;15.07;;;18.70;83.20;;;;;;5002912;28;20042;-75
2023/09/27 10:14:49;;;;;;;22.90;14.40;;;18.80;83.20;;;;;;5007627;28;20169;-74
2023/09/27 10:17:25;;;;;;;18.13;13.20;;;18.90;83.00;;;;;;4987854;28;20273;-74
2023/09/27 10:20:12;;;;;;;16.02;11.90;;;19.00;82.80;;;;;;4981017;28;20185;-75
2023/09/27 10:22:40;;;;;;;17.92;11.82;;;19.00;82.60;;;;;;5008432;28;20054;-74
2023/09/27 10:25:32;;;;;;;16.30;11.27;;;19.10;82.20;;;;;;5005725;28;20046;-74
2023/09/27 10:28:12;;;;;;;16.83;11.43;;;19.20;81.90;;;;;;4989150;28;20047;-75
2023/09/27 10:31:05;;;;;;;16.38;11.85;;;19.30;82.00;;;;;;5007653;28;20352;-75
2023/09/27 10:33:32;;;;;;;15.25;11.57;;;19.30;81.90;;;;;;4987754;28;20055;-75
2023/09/27 10:36:29;;;;;;;19.27;12.80;;;19.40;81.70;;;;;;4986010;28;20061;-75
2023/09/27 10:39:06;;;;;;;22.35;14.65;;;19.50;81.40;;;;;;4997573;28;20161;-75
2023/09/27 10:41:46;;;;;;;18.87;13.93;;;19.60;81.20;;;;;;4980182;28;20141;-75
2023/09/27 10:44:26;;;;;;;20.02;14.02;;;19.70;81.20;;;;;;4998399;28;20700;-75
2023/09/27 10:46:53;;;;;;;21.58;14.65;;;19.70;81.20;;;;;;4965635;28;20066;-75
2023/09/27 10:49:21;;;;;;;21.70;15.43;;;19.80;81.10;;;;;;4996507;28;20531;-75
2023/09/27 10:51:48;;;;;;;21.67;16.75;;;19.90;81.00;;;;;;4995426;28;20062;-75
2023/09/27 10:54:15;;;;;;;21.23;15.90;;;20.00;80.70;;;;;;4993838;28;20072;-75
2023/09/27 10:56:44;;;;;;;24.30;16.15;;;20.00;80.70;;;;;;4988822;28;20726;-75
2023/09/27 10:59:13;;;;;;;20.83;14.90;;;20.10;80.70;;;;;;4989616;28;20161;-75
2023/09/27 11:01:46;;;;;;;20.55;13.45;;;20.20;80.80;;;;;;5005088;28;20204;-74
2023/09/27 11:04:13;;;;;;;17.60;13.50;;;20.30;80.70;;;;;;5002296;28;20058;-75
2023/09/27 11:06:39;;;;;;;18.00;12.63;;;20.30;80.30;;;;;;4987350;28;20058;-75
2023/09/27 11:09:07;;;;;;;16.73;13.18;;;20.50;80.40;;;;;;4994998;28;20392;-75
2023/09/27 11:11:35;;;;;;;17.00;12.48;;;20.50;79.70;;;;;;4988162;28;20061;-75
2023/09/27 11:14:03;;;;;;;16.92;12.27;;;20.60;78.70;;;;;;4999816;28;20161;-75
2023/09/27 11:16:30;;;;;;;16.20;12.13;;;20.70;78.30;;;;;;5002519;28;20052;-75
2023/09/27 11:18:58;;;;;;;17.10;13.13;;;20.70;78.10;;;;;;4993339;28;20047;-74
2023/09/27 11:21:26;;;;;;;18.02;12.48;;;20.80;77.90;;;;;;4996167;28;20274;-75
2023/09/27 11:23:55;;;;;;;17.10;11.95;;;20.80;77.60;;;;;;5011589;28;20061;-75
2023/09/27 11:26:22;;;;;;;16.90;11.93;;;20.80;77.30;;;;;;4999210;28;21090;-75
2023/09/27 11:28:59;;;;;;;15.40;11.38;;;20.80;77.30;;;;;;4982718;28;20146;-75
2023/09/27 11:31:28;;;;;;;16.27;12.53;;;20.90;77.00;;;;;;4983384;28;20176;-73
2023/09/27 11:34:13;;;;;;;15.82;11.57;;;20.90;76.80;;;;;;4987541;28;20763;-75
2023/09/27 11:36:41;;;;;;;17.10;11.98;;;20.90;76.60;;;;;;5005952;28;20165;-72
2023/09/27 11:39:08;;;;;;;15.05;10.98;;;21.00;76.40;;;;;;4999916;28;20054;-73
2023/09/27 11:41:35;;;;;;;15.32;11.60;;;21.00;76.30;;;;;;5006603;28;20146;-73
2023/09/27 11:44:16;;;;;;;16.33;11.43;;;21.00;76.20;;;;;;5001931;28;20066;-73
2023/09/27 11:46:43;;;;;;;15.40;11.43;;;21.10;75.80;;;;;;4982322;28;20469;-73
2023/09/27 11:49:11;;;;;;;15.90;12.18;;;21.10;75.70;;;;;;4982252;28;20058;-72
2023/09/27 11:51:38;;;;;;;15.40;11.82;;;21.10;75.50;;;;;;4987072;28;20057;-73
2023/09/27 11:54:06;;;;;;;16.05;12.10;;;21.10;75.20;;;;;;4986199;28;20061;-73
2023/09/27 11:56:36;;;;;;;18.20;12.43;;;21.10;75.20;;;;;;5009240;28;20059;-73
2023/09/27 11:59:04;;;;;;;17.60;12.00;;;21.10;75.10;;;;;;4990484;28;20262;-73
2023/09/27 12:01:31;;;;;;;16.10;12.00;;;21.10;74.90;;;;;;5004596;28;20072;-73
2023/09/27 12:03:59;;;;;;;17.45;12.73;;;21.10;75.00;;;;;;5004532;28;20050;-73
2023/09/27 12:06:28;;;;;;;17.88;13.80;;;21.20;75.00;;;;;;5001596;28;20055;-73
2023/09/27 12:08:56;;;;;;;17.97;13.03;;;21.20;75.20;;;;;;4992239;28;20073;-73
2023/09/27 12:11:23;;;;;;;18.00;12.93;;;21.30;75.20;;;;;;5006204;28;20290;-73
2023/09/27 12:13:52;;;;;;;19.08;13.18;;;21.30;75.00;;;;;;4992831;28;20046;-72
2023/09/27 12:16:20;;;;;;;16.33;12.10;;;21.30;75.00;;;;;;4989458;28;20420;-72
2023/09/27 12:18:47;;;;;;;16.33;12.35;;;21.40;75.00;;;;;;4992686;28;20627;-73
2023/09/27 12:21:14;;;;;;;18.27;12.80;;;21.40;74.90;;;;;;4991622;28;20046;-73
2023/09/27 12:23:44;;;;;;;17.67;12.18;;;21.40;74.90;;;;;;5005084;28;20271;-73
2023/09/27 12:26:12;;;;;;;15.98;11.82;;;21.40;74.90;;;;;;4991245;28;20046;-73
2023/09/27 12:28:39;;;;;;;16.85;10.95;;;21.40;74.90;;;;;;5002723;28;20154;-73
2023/09/27 12:31:07;;;;;;;18.35;11.85;;;21.40;74.90;;;;;;4971476;28;20061;-73
2023/09/27 12:33:35;;;;;;;16.87;11.40;;;21.50;74.70;;;;;;4984276;28;20784;-73
2023/09/27 12:36:03;;;;;;;15.57;11.30;;;21.50;74.50;;;;;;4991139;28;20404;-73